EW5820 Weather Reports


time (UTC)temp
C
wind
direction
speed
KPH
gust
KPH
rain 1hr
cm
rain 24hr
cm
rain mn
cm
humidity
%
barometer
mb
20220629030041 18 13 0.0 0.0 0.00 0.00 0.00 92 1018.5
20220629024540 18 13 0.0 1.6 0.00 0.00 0.00 91 1018.2
20220629023041 19 14 0.0 1.6 0.00 0.00 0.00 90 1017.8
20220629021538 20 68 0.0 3.2 0.00 0.00 0.00 88 1017.8
20220629020036 21 332 0.0 1.6 0.00 0.00 0.00 84 1017.5
20220629014536 22 332 0.0 0.0 0.00 0.00 0.00 77 1017.4
20220629013035 23 332 0.0 0.0 0.00 0.00 0.00 74 1017.3
20220629011534 23 332 0.0 1.6 0.00 0.00 0.00 71 1017.3
20220629010038 24 26 0.0 1.6 0.00 0.00 0.00 66 1017.2
20220629004535 23 92 0.0 1.6 0.00 0.00 0.00 70 1017.2
20220629003032 23 103 0.0 1.6 0.00 0.00 0.00 69 1016.9
20220629001533 24 60 0.0 1.6 0.00 0.00 0.00 67 1016.8
20220629000034 24 65 1.6 6.4 0.00 0.00 0.00 68 1016.8
20220628234543 24 76 0.0 4.8 0.00 0.00 0.00 66 1016.7
20220628233030 25 63 0.0 6.4 0.00 0.00 0.00 62 1016.6
20220628231535 25 66 1.6 6.4 0.00 0.00 0.00 63 1016.3
20220628230038 24 285 0.0 6.4 0.00 0.00 0.00 60 1016.2
20220628224529 23 190 0.0 12.9 0.00 0.00 0.00 63 1016.4
20220628223033 22 65 9.7 29.0 0.00 0.00 0.00 65 1016.2
20220628221528 26 117 0.0 11.3 0.00 0.00 0.00 50 1016.0
20220628220025 27 257 6.4 19.3 0.00 0.00 0.00 45 1016.6
20220628214527 28 262 4.8 22.5 0.00 0.00 0.00 44 1016.9
20220628213029 28 225 6.4 17.7 0.00 0.00 0.00 43 1017.2
20220628211523 27 241 3.2 12.9 0.00 0.00 0.00 47 1017.3
20220628210017 27 310 8.0 20.9 0.00 0.00 0.00 44 1017.4
20220628204515 27 274 4.8 16.1 0.00 0.00 0.00 45 1017.6
20220628203024 26 340 4.8 17.7 0.00 0.00 0.00 46 1017.7
20220628201512 26 245 9.7 27.4 0.00 0.00 0.00 46 1017.8
20220628200011 27 297 8.0 20.9 0.00 0.00 0.00 45 1017.9
20220628194513 27 166 4.8 25.7 0.00 0.00 0.00 45 1018.1
20220628193007 27 207 6.4 17.7 0.00 0.00 0.00 47 1018.3
20220628191502 27 184 14.5 32.2 0.00 0.00 0.00 46 1018.6
20220628190101 27 210 9.7 20.9 0.00 0.00 0.00 47 1018.8
20220628184558 27 229 11.3 24.1 0.00 0.00 0.00 48 1019.0
20220628183059 26 183 8.0 24.1 0.00 0.00 0.00 51 1019.0
20220628181553 26 197 6.4 12.9 0.00 0.00 0.00 53 1019.2
20220628180049 25 208 6.4 14.5 0.00 0.00 0.00 57 1019.4
20220628174548 24 218 6.4 14.5 0.00 0.00 0.00 58 1019.7
20220628173052 23 173 3.2 9.7 0.00 0.00 0.00 60 1020.0
20220628171541 23 134 6.4 12.9 0.00 0.00 0.00 58 1020.2
20220628170038 23 248 1.6 11.3 0.00 0.00 0.00 68 1020.3
20220628164532 20 217 6.4 11.3 0.00 0.00 0.00 74 1020.3
20220628163031 18 219 8.0 19.3 0.00 0.00 0.00 80 1020.4
20220628161530 17 189 8.0 20.9 0.00 0.00 0.00 82 1020.3
20220628160033 18 190 3.2 25.7 0.00 0.00 0.00 79 1020.8
20220628154526 19 249 1.6 6.4 0.00 0.00 0.00 71 1020.4
20220628153037 20 280 6.4 17.7 0.00 0.00 0.00 65 1020.9
20220628151522 20 238 3.2 17.7 0.00 0.00 0.00 67 1020.6
20220628150028 19 207 3.2 19.3 0.00 0.00 0.00 71 1020.9
20220628144519 19 238 8.0 29.0 0.00 0.00 0.00 68 1020.9
20220628143017 20 263 9.7 27.4 0.00 0.00 0.00 62 1021.1
20220628141514 20 158 6.4 16.1 0.00 0.00 0.00 63 1021.4
20220628140025 20 285 4.8 17.7 0.00 0.00 0.00 64 1021.5
20220628134511 19 226 4.8 12.9 0.00 0.00 0.00 64 1021.4
20220628133015 19 187 3.2 14.5 0.00 0.00 0.00 64 1021.4
20220628131510 19 115 4.8 12.9 0.00 0.00 0.00 64 1021.4
20220628130009 19 214 4.8 14.5 0.00 0.00 0.00 63 1021.4
20220628124509 18 265 3.2 8.0 0.00 0.00 0.00 64 1021.3
20220628123014 18 269 1.6 8.0 0.00 0.00 0.00 64 1021.5
20220628121507 18 354 4.8 9.7 0.00 0.00 0.00 63 1021.5
20220628120008 18 271 3.2 9.7 0.00 0.00 0.00 65 1021.5
20220628114505 18 204 0.0 11.3 0.00 0.00 0.00 63 1021.4
20220628113006 18 282 0.0 6.4 0.00 0.00 0.00 64 1021.5
20220628111506 18 239 1.6 9.7 0.00 0.00 0.00 63 1021.3
20220628110002 18 209 1.6 11.3 0.00 0.00 0.00 63 1021.3
20220628104502 17 281 3.2 17.7 0.00 0.00 0.00 63 1021.3
20220628103001 17 249 4.8 19.3 0.00 0.00 0.00 63 1021.3
20220628101607 17 240 8.0 14.5 0.00 0.00 0.00 63 1021.3
20220628100124 17 200 3.2 19.3 0.00 0.00 0.00 62 1021.3
20220628094559 18 262 3.2 14.5 0.00 0.00 0.00 61 1021.2
20220628093058 17 251 4.8 14.5 0.00 0.00 0.00 61 1021.2
20220628091557 17 231 3.2 16.1 0.00 0.00 0.00 62 1021.2
20220628090058 17 217 4.8 12.9 0.00 0.00 0.00 63 1021.2
20220628084559 17 206 1.6 8.0 0.00 0.00 0.00 63 1021.2
20220628083056 17 214 3.2 9.7 0.00 0.00 0.00 63 1021.2
20220628081554 17 206 3.2 9.7 0.00 0.00 0.00 64 1021.3
20220628080052 17 168 3.2 12.9 0.00 0.00 0.00 63 1021.3
20220628074551 17 223 4.8 11.3 0.00 0.00 0.00 63 1021.3
20220628073047 17 186 3.2 12.9 0.00 0.00 0.00 62 1021.4
20220628071548 18 195 4.8 9.7 0.00 0.00 0.00 62 1021.4
20220628070043 18 172 4.8 11.3 0.00 0.00 0.00 60 1021.6
20220628064540 18 169 4.8 9.7 0.00 0.00 0.00 59 1021.6
20220628063050 19 206 3.2 11.3 0.00 0.00 0.00 56 1021.8
20220628061536 18 205 3.2 6.4 0.00 0.00 0.00 57 1021.9
20220628060034 19 205 3.2 8.0 0.00 0.00 0.00 57 1022.0
20220628054533 19 217 0.0 8.0 0.00 0.00 0.00 56 1022.1
20220628053033 19 197 1.6 6.4 0.00 0.00 0.00 57 1022.1
20220628051531 19 219 1.6 8.0 0.00 0.00 0.00 59 1022.2
20220628050026 19 224 1.6 6.4 0.00 0.00 0.00 59 1022.4
20220628044526 19 231 1.6 6.4 0.00 0.00 0.00 59 1022.5
20220628043025 20 229 1.6 4.8 0.00 0.00 0.00 59 1022.6
20220628041529 20 221 0.0 6.4 0.00 0.00 0.00 59 1022.6
20220628040025 20 190 3.2 8.0 0.00 0.00 0.00 59 1022.6
20220628034526 21 181 0.0 6.4 0.00 0.00 0.00 58 1022.6
20220628033036 21 187 1.6 4.8 0.00 0.00 0.00 57 1022.6
20220628031533 21 196 0.0 8.0 0.00 0.00 0.00 56 1022.6